Time;durP1;ratioP1;P1;durP2;ratioP2;P2;SDS_P1;SDS_P2;PMS_P1;PMS_P2;Temp;Humidity;BMP_temperature;BMP_pressure;BME280_temperature;BME280_humidity;BME280_pressure;Samples;Min_cycle;Max_cycle;Signal;HPM_P1;HPM_P2
2024/01/15 00:01:48;;;;;;;80.70;42.88;;;-0.60;94.20;;;;;;5044657;28;20455;-81
2024/01/15 00:04:18;;;;;;;81.40;42.90;;;-0.30;94.00;;;;;;5047638;28;20067;-78
2024/01/15 00:06:46;;;;;;;78.82;42.33;;;-0.40;93.60;;;;;;5043874;28;20136;-78
2024/01/15 00:09:16;;;;;;;74.68;41.22;;;-0.60;94.20;;;;;;5051633;28;20094;-77
2024/01/15 00:11:43;;;;;;;85.30;41.65;;;-0.50;94.30;;;;;;5046722;28;20055;-79
2024/01/15 00:14:11;;;;;;;84.80;41.35;;;-0.30;93.90;;;;;;5032664;28;20031;-78
2024/01/15 00:16:40;;;;;;;82.15;42.78;;;-0.20;93.70;;;;;;5044880;28;21312;-79
2024/01/15 00:19:07;;;;;;;78.90;45.92;;;-0.20;93.80;;;;;;5043591;28;20096;-78
2024/01/15 00:21:35;;;;;;;84.50;44.53;;;-0.30;93.90;;;;;;5050041;28;20107;-79
2024/01/15 00:24:02;;;;;;;81.45;41.50;;;-0.20;94.00;;;;;;5015691;28;20060;-78
2024/01/15 00:26:30;;;;;;;68.18;38.03;;;-0.30;94.00;;;;;;5046014;28;20116;-80
2024/01/15 00:28:57;;;;;;;64.38;36.38;;;-0.40;93.90;;;;;;5050478;28;20382;-76
2024/01/15 00:31:24;;;;;;;65.78;35.75;;;-0.80;94.30;;;;;;5047480;28;20119;-76
2024/01/15 00:33:52;;;;;;;61.60;36.70;;;-0.60;94.60;;;;;;5033403;28;20115;-78
2024/01/15 00:36:20;;;;;;;60.65;33.90;;;-0.50;94.30;;;;;;5048356;28;20048;-78
2024/01/15 00:38:47;;;;;;;65.15;36.25;;;-0.70;94.20;;;;;;5034609;28;20055;-79
2024/01/15 00:41:15;;;;;;;67.88;38.30;;;-0.70;94.70;;;;;;5049716;28;20124;-77
2024/01/15 00:43:42;;;;;;;63.83;36.15;;;-0.70;94.70;;;;;;5048937;28;20044;-76
2024/01/15 00:46:10;;;;;;;61.45;34.85;;;-0.90;94.80;;;;;;5050621;28;20116;-79
2024/01/15 00:48:39;;;;;;;67.80;35.70;;;-0.90;95.10;;;;;;5049994;28;20037;-76
2024/01/15 00:51:07;;;;;;;66.78;35.10;;;-0.70;95.10;;;;;;5017273;28;20657;-78
2024/01/15 00:53:34;;;;;;;65.45;33.92;;;-0.70;94.80;;;;;;5032646;28;20037;-77
2024/01/15 00:56:03;;;;;;;68.35;35.30;;;-0.60;94.70;;;;;;5052474;28;20029;-77
2024/01/15 00:58:30;;;;;;;77.10;41.30;;;-0.80;94.60;;;;;;5049192;28;20120;-77
2024/01/15 01:00:57;;;;;;;86.95;47.72;;;-0.40;95.40;;;;;;5050603;28;20112;-76
2024/01/15 01:03:25;;;;;;;73.88;41.30;;;-0.30;95.10;;;;;;5043034;28;20037;-83
2024/01/15 01:05:52;;;;;;;71.20;40.33;;;-0.50;94.80;;;;;;5046198;28;20132;-78
2024/01/15 01:08:19;;;;;;;62.75;36.55;;;-0.60;94.60;;;;;;5049886;28;20372;-77
2024/01/15 01:10:47;;;;;;;74.82;39.38;;;-0.60;94.60;;;;;;5050352;28;20063;-76
2024/01/15 01:13:14;;;;;;;67.97;37.92;;;-0.60;94.40;;;;;;5048946;28;20118;-77
2024/01/15 01:15:41;;;;;;;65.93;36.63;;;-0.90;94.40;;;;;;5049916;28;20464;-76
2024/01/15 01:18:09;;;;;;;74.45;37.85;;;-1.50;95.00;;;;;;5051292;28;20044;-76
2024/01/15 01:20:36;;;;;;;59.40;36.80;;;-1.80;95.80;;;;;;5047925;28;20108;-77
2024/01/15 01:23:04;;;;;;;60.45;38.92;;;-1.70;97.00;;;;;;5051085;28;20090;-77
2024/01/15 01:25:32;;;;;;;62.28;36.35;;;-1.30;96.80;;;;;;5049080;28;20464;-76
2024/01/15 01:27:59;;;;;;;71.10;37.85;;;-1.00;96.20;;;;;;5048376;28;20041;-78
2024/01/15 01:30:26;;;;;;;66.72;36.97;;;-1.30;95.70;;;;;;5047819;28;20106;-76
2024/01/15 01:32:54;;;;;;;73.65;38.50;;;-1.00;95.80;;;;;;5034854;28;20131;-78
2024/01/15 01:35:23;;;;;;;68.90;37.53;;;-0.90;95.40;;;;;;5046233;28;20029;-78
2024/01/15 01:38:19;;;;;;;62.38;35.70;;;-1.00;95.30;;;;;;5043753;28;20068;-78
2024/01/15 01:40:46;;;;;;;63.15;37.72;;;-0.80;95.30;;;;;;5050511;28;20041;-78
2024/01/15 01:43:13;;;;;;;67.22;36.78;;;-0.70;95.00;;;;;;5050432;28;20689;-78
2024/01/15 01:45:41;;;;;;;66.70;36.85;;;-0.70;94.90;;;;;;5047865;28;20618;-78
2024/01/15 01:48:08;;;;;;;71.30;37.22;;;-0.70;94.70;;;;;;5048700;28;20041;-77
2024/01/15 01:50:36;;;;;;;71.50;38.75;;;-0.80;94.80;;;;;;5033611;28;20037;-78
2024/01/15 01:53:04;;;;;;;72.43;38.63;;;-0.70;94.80;;;;;;5044449;28;20034;-79
2024/01/15 01:55:33;;;;;;;66.45;37.72;;;-0.80;94.70;;;;;;5049071;28;20059;-78
2024/01/15 01:58:01;;;;;;;67.65;39.08;;;-0.80;94.70;;;;;;5050103;28;20357;-78
2024/01/15 02:00:30;;;;;;;68.15;38.15;;;-0.70;94.90;;;;;;5045635;28;20065;-78
2024/01/15 02:02:58;;;;;;;80.45;40.05;;;-0.70;94.70;;;;;;5032102;28;20124;-79
2024/01/15 02:05:26;;;;;;;70.75;39.15;;;-0.50;94.70;;;;;;5051248;28;20047;-80
2024/01/15 02:07:54;;;;;;;76.43;40.40;;;-0.40;94.30;;;;;;5051055;28;20112;-80
2024/01/15 02:10:21;;;;;;;70.68;40.97;;;-0.40;94.00;;;;;;5049370;28;20086;-78
2024/01/15 02:12:48;;;;;;;75.28;38.67;;;-0.40;94.00;;;;;;5050880;28;20041;-77
2024/01/15 02:15:16;;;;;;;71.00;40.58;;;-0.40;94.10;;;;;;5049004;28;20041;-77
2024/01/15 02:18:01;;;;;;;76.70;39.90;;;-0.60;94.30;;;;;;5033061;28;20377;-77
2024/01/15 02:20:29;;;;;;;73.72;39.78;;;-0.50;94.40;;;;;;5035798;28;20047;-78
2024/01/15 02:23:16;;;;;;;76.57;39.95;;;-0.70;94.40;;;;;;5049680;28;20048;-77
2024/01/15 02:25:46;;;;;;;75.22;37.67;;;-0.60;94.70;;;;;;5046671;28;20052;-78
2024/01/15 02:28:15;;;;;;;74.13;39.63;;;-0.60;94.70;;;;;;5049053;28;20037;-78
2024/01/15 02:30:43;;;;;;;77.10;39.92;;;-0.80;94.80;;;;;;5047794;28;20045;-78
2024/01/15 02:33:11;;;;;;;68.40;38.40;;;-0.60;94.90;;;;;;5048445;28;20025;-79
2024/01/15 02:35:40;;;;;;;72.28;39.85;;;-1.10;94.60;;;;;;5047490;28;20111;-77
2024/01/15 02:38:08;;;;;;;75.53;40.28;;;-1.10;95.60;;;;;;5048364;28;20029;-78
2024/01/15 02:40:35;;;;;;;79.18;39.65;;;-1.20;95.30;;;;;;5048911;28;20044;-80
2024/01/15 02:43:03;;;;;;;75.38;39.05;;;-1.40;95.80;;;;;;5050532;28;20059;-78
2024/01/15 02:45:30;;;;;;;70.20;37.50;;;-1.10;96.20;;;;;;5048595;28;20079;-77
2024/01/15 02:47:58;;;;;;;75.05;39.83;;;-0.80;95.80;;;;;;5045973;28;20036;-78
2024/01/15 02:50:25;;;;;;;69.57;38.85;;;-0.70;95.20;;;;;;5048752;28;20037;-78
2024/01/15 02:52:53;;;;;;;80.70;40.97;;;-0.90;95.20;;;;;;5049005;28;20049;-77
2024/01/15 02:55:20;;;;;;;79.78;41.50;;;-0.80;95.30;;;;;;5049315;28;20099;-77
2024/01/15 02:57:47;;;;;;;77.55;42.00;;;-1.20;95.30;;;;;;5048799;28;20033;-77
2024/01/15 03:00:15;;;;;;;81.35;44.70;;;-1.10;96.10;;;;;;5053730;28;20036;-76
2024/01/15 03:02:44;;;;;;;81.15;42.90;;;-1.00;95.70;;;;;;5049514;28;20033;-78
2024/01/15 03:05:15;;;;;;;98.03;45.15;;;-1.00;95.60;;;;;;5049954;28;20043;-78
2024/01/15 03:07:43;;;;;;;83.90;45.47;;;-0.90;95.40;;;;;;5048560;28;20094;-78
2024/01/15 03:10:10;;;;;;;91.05;45.97;;;-1.10;95.60;;;;;;5049707;28;20041;-78
2024/01/15 03:12:38;;;;;;;89.20;44.55;;;-0.90;95.40;;;;;;5049345;28;20104;-77
2024/01/15 03:15:05;;;;;;;87.82;44.47;;;-1.20;95.40;;;;;;5049425;28;20039;-78
2024/01/15 03:17:33;;;;;;;84.05;45.65;;;-1.00;95.70;;;;;;5048652;28;20376;-78
2024/01/15 03:20:01;;;;;;;93.75;45.47;;;-0.90;95.30;;;;;;5045685;28;20058;-78
2024/01/15 03:22:29;;;;;;;75.65;42.17;;;-1.20;95.20;;;;;;5046861;28;20036;-77
2024/01/15 03:24:56;;;;;;;74.20;42.63;;;-1.10;95.50;;;;;;5048983;28;20032;-77
2024/01/15 03:27:24;;;;;;;82.25;43.92;;;-0.90;95.40;;;;;;5043259;28;20053;-75
2024/01/15 03:29:51;;;;;;;86.93;43.10;;;-0.90;95.30;;;;;;5046701;28;20033;-77
2024/01/15 03:32:19;;;;;;;85.20;43.83;;;-0.90;95.20;;;;;;5050285;28;20029;-77
2024/01/15 03:34:48;;;;;;;74.15;42.75;;;-1.00;95.30;;;;;;5050526;28;20045;-77
2024/01/15 03:37:15;;;;;;;80.45;41.75;;;-1.00;95.40;;;;;;5029921;28;20060;-77
2024/01/15 03:39:42;;;;;;;72.82;38.72;;;-1.20;95.60;;;;;;5030104;28;20048;-77
2024/01/15 03:42:10;;;;;;;68.25;37.35;;;-0.90;95.70;;;;;;5049324;28;20039;-77
2024/01/15 03:44:37;;;;;;;70.15;34.70;;;-0.80;95.30;;;;;;5048476;28;20033;-78
2024/01/15 03:47:04;;;;;;;57.72;33.42;;;-0.70;95.00;;;;;;5053045;28;20434;-78
2024/01/15 03:49:32;;;;;;;61.78;34.25;;;-0.70;95.00;;;;;;5047403;28;20404;-77
2024/01/15 03:51:59;;;;;;;64.10;33.83;;;-0.60;94.70;;;;;;5046806;28;20427;-79
2024/01/15 03:54:26;;;;;;;56.78;32.55;;;-0.70;94.50;;;;;;5052019;28;20040;-78
2024/01/15 03:56:54;;;;;;;59.40;33.80;;;-0.70;94.80;;;;;;5049682;28;20055;-78
2024/01/15 03:59:21;;;;;;;56.10;30.95;;;-0.80;94.40;;;;;;5046493;28;20494;-77
2024/01/15 04:01:52;;;;;;;59.92;32.78;;;-0.90;94.80;;;;;;5049138;28;20480;-76
2024/01/15 04:04:20;;;;;;;63.35;31.40;;;-0.80;94.90;;;;;;5047874;28;20057;-77
2024/01/15 04:06:47;;;;;;;61.00;34.10;;;-0.70;94.60;;;;;;5044405;28;20056;-77
2024/01/15 04:09:15;;;;;;;61.13;33.22;;;-0.60;94.50;;;;;;5047594;28;20623;-77
2024/01/15 04:11:42;;;;;;;67.18;33.10;;;-0.60;94.30;;;;;;5031120;28;20133;-76
2024/01/15 04:14:09;;;;;;;58.47;32.63;;;-1.00;94.80;;;;;;5047993;28;20056;-76
2024/01/15 04:16:37;;;;;;;56.78;33.80;;;-1.00;95.10;;;;;;5046610;28;20124;-79
2024/01/15 04:19:05;;;;;;;67.05;35.78;;;-0.80;95.10;;;;;;5047892;28;20025;-78
2024/01/15 04:21:32;;;;;;;65.57;36.40;;;-0.60;94.80;;;;;;5053894;28;20054;-78
2024/01/15 04:24:00;;;;;;;66.70;35.78;;;-0.70;94.60;;;;;;5047048;28;20107;-77
2024/01/15 04:26:27;;;;;;;63.10;34.38;;;-1.00;94.90;;;;;;5044621;28;20033;-75
2024/01/15 04:28:54;;;;;;;58.53;33.35;;;-0.80;95.40;;;;;;5048287;28;20061;-76
2024/01/15 04:31:23;;;;;;;55.28;33.72;;;-0.70;95.00;;;;;;5048850;28;20492;-75
2024/01/15 04:33:51;;;;;;;54.75;32.55;;;-0.80;94.90;;;;;;5052547;28;20037;-78
2024/01/15 04:36:18;;;;;;;62.60;31.98;;;-0.80;95.30;;;;;;5048524;28;20044;-79
2024/01/15 04:38:46;;;;;;;56.35;32.63;;;-0.70;95.30;;;;;;5048316;28;20056;-77
2024/01/15 04:41:14;;;;;;;63.97;33.60;;;-0.60;95.20;;;;;;5048987;28;20040;-79
2024/01/15 04:43:41;;;;;;;61.80;34.63;;;-0.50;95.20;;;;;;5050722;28;20068;-79
2024/01/15 04:46:09;;;;;;;61.40;35.08;;;-0.50;95.30;;;;;;5045725;28;20033;-76
2024/01/15 04:48:36;;;;;;;53.67;33.15;;;-0.60;95.20;;;;;;5023058;28;20049;-77
2024/01/15 04:51:05;;;;;;;60.90;35.75;;;-0.70;95.30;;;;;;5052089;28;20106;-77
2024/01/15 04:53:34;;;;;;;59.85;33.47;;;-1.10;96.00;;;;;;5045737;28;20029;-76
2024/01/15 04:56:02;;;;;;;64.03;32.80;;;-0.90;96.10;;;;;;5045593;28;20087;-78
2024/01/15 04:58:29;;;;;;;57.78;32.33;;;-1.00;96.30;;;;;;5051467;28;20519;-78
2024/01/15 05:00:57;;;;;;;51.30;31.88;;;-0.90;96.20;;;;;;5048484;28;20033;-79
2024/01/15 05:03:24;;;;;;;60.35;32.70;;;-0.80;96.00;;;;;;5046251;28;20037;-78
2024/01/15 05:05:52;;;;;;;58.17;31.17;;;-0.70;95.80;;;;;;5051120;28;20036;-80
2024/01/15 05:08:19;;;;;;;57.13;32.53;;;-0.70;95.70;;;;;;5052570;28;20119;-78
2024/01/15 05:10:47;;;;;;;52.92;30.23;;;-0.80;95.50;;;;;;5047490;28;20053;-77
2024/01/15 05:13:15;;;;;;;52.67;29.05;;;-0.90;95.70;;;;;;5052233;28;20453;-78
2024/01/15 05:15:42;;;;;;;52.42;29.67;;;-0.70;95.60;;;;;;5048088;28;20037;-77
2024/01/15 05:18:10;;;;;;;51.47;29.75;;;-0.80;95.40;;;;;;5050980;28;20039;-78
2024/01/15 05:20:37;;;;;;;57.22;30.05;;;-0.80;95.50;;;;;;5046425;28;20033;-79
2024/01/15 05:23:05;;;;;;;55.83;32.30;;;-0.80;95.40;;;;;;5048526;28;20029;-77
2024/01/15 05:25:32;;;;;;;57.22;31.30;;;-0.90;95.20;;;;;;5048352;28;20033;-81
2024/01/15 05:27:59;;;;;;;49.63;29.90;;;-0.70;95.50;;;;;;5050626;28;20037;-79
2024/01/15 05:30:27;;;;;;;54.38;29.90;;;-0.60;95.30;;;;;;5050116;28;20137;-77
2024/01/15 05:32:54;;;;;;;57.28;29.75;;;-0.70;95.20;;;;;;5055674;28;20407;-77
2024/01/15 05:35:22;;;;;;;54.90;30.48;;;-1.00;95.30;;;;;;5047916;28;20037;-77
2024/01/15 05:37:49;;;;;;;55.40;29.65;;;-0.90;95.80;;;;;;5034097;28;20117;-78
2024/01/15 05:40:16;;;;;;;50.33;28.88;;;-1.00;95.40;;;;;;5043661;28;20476;-77
2024/01/15 05:42:44;;;;;;;59.15;30.60;;;-0.90;96.00;;;;;;5053025;28;20520;-77
2024/01/15 05:45:11;;;;;;;45.17;27.52;;;-1.00;96.20;;;;;;5050465;28;20029;-76
2024/01/15 05:47:38;;;;;;;53.90;29.23;;;-0.80;96.40;;;;;;5048206;28;20033;-77
2024/01/15 05:50:06;;;;;;;44.17;27.27;;;-0.70;96.00;;;;;;5033707;28;20043;-76
2024/01/15 05:52:34;;;;;;;47.60;25.98;;;-0.80;95.50;;;;;;5030100;28;20357;-79
2024/01/15 05:55:01;;;;;;;47.25;28.65;;;-0.70;95.40;;;;;;5044048;28;20061;-77
2024/01/15 05:57:29;;;;;;;53.70;29.33;;;-0.60;95.40;;;;;;5048847;28;20110;-77
2024/01/15 05:59:56;;;;;;;60.30;31.33;;;-0.70;95.30;;;;;;5054696;28;21395;-77
2024/01/15 06:02:23;;;;;;;46.72;28.35;;;-0.60;95.50;;;;;;5046329;28;20031;-78
2024/01/15 06:04:51;;;;;;;48.72;28.27;;;-0.60;95.40;;;;;;5049647;28;20045;-78
2024/01/15 06:07:18;;;;;;;54.60;27.05;;;-0.50;95.50;;;;;;5049036;28;20480;-78
2024/01/15 06:09:45;;;;;;;45.75;27.65;;;-0.40;95.40;;;;;;5040252;28;20044;-76
2024/01/15 06:12:13;;;;;;;50.75;28.77;;;-0.40;95.20;;;;;;5046783;28;20045;-75
2024/01/15 06:14:41;;;;;;;49.50;28.10;;;-0.30;95.10;;;;;;5033063;28;20049;-77
2024/01/15 06:17:08;;;;;;;52.80;28.38;;;-0.30;94.70;;;;;;5029799;28;20048;-78
2024/01/15 06:19:36;;;;;;;49.63;26.92;;;-0.40;94.60;;;;;;5048276;28;20037;-77
2024/01/15 06:22:03;;;;;;;57.25;30.88;;;-0.60;95.00;;;;;;5044380;28;20093;-77
2024/01/15 06:24:31;;;;;;;52.08;29.23;;;-0.60;94.60;;;;;;5037059;28;20107;-79
2024/01/15 06:26:58;;;;;;;54.17;29.45;;;-0.80;95.60;;;;;;5050648;28;20425;-76
2024/01/15 06:29:27;;;;;;;54.80;29.15;;;-0.60;95.60;;;;;;5049693;28;20040;-77
2024/01/15 06:31:54;;;;;;;51.38;28.52;;;-0.60;95.20;;;;;;5050264;28;20370;-76
2024/01/15 06:34:22;;;;;;;51.38;28.08;;;-0.70;95.50;;;;;;5052423;28;20037;-77
2024/01/15 06:36:49;;;;;;;47.80;27.08;;;-0.60;95.40;;;;;;5049490;28;20041;-77
2024/01/15 06:39:17;;;;;;;51.30;30.83;;;-0.40;95.40;;;;;;5048967;28;20527;-78
2024/01/15 06:41:44;;;;;;;55.05;30.58;;;-0.30;95.00;;;;;;5047027;28;20345;-77
2024/01/15 06:44:12;;;;;;;53.88;28.13;;;-0.40;95.00;;;;;;5049457;28;20064;-78
2024/01/15 06:46:43;;;;;;;59.53;32.85;;;-0.60;95.30;;;;;;5048826;28;20068;-78
2024/01/15 06:49:12;;;;;;;57.28;32.88;;;-0.80;95.80;;;;;;5048056;28;20491;-78
2024/01/15 06:51:40;;;;;;;50.97;29.88;;;-1.20;96.40;;;;;;5028133;28;20464;-77
2024/01/15 06:54:07;;;;;;;50.13;30.13;;;-0.80;96.70;;;;;;5046520;28;20048;-78
2024/01/15 06:56:35;;;;;;;52.13;31.27;;;-0.80;96.60;;;;;;5043972;28;20033;-78
2024/01/15 06:59:02;;;;;;;50.03;30.60;;;-0.50;96.50;;;;;;5015904;28;20072;-77
2024/01/15 07:01:30;;;;;;;63.17;31.23;;;-0.30;96.10;;;;;;5042034;28;20384;-77
2024/01/15 07:03:57;;;;;;;56.15;32.05;;;-0.20;95.70;;;;;;5045426;28;20041;-77
2024/01/15 07:06:24;;;;;;;55.47;31.75;;;0.00;95.40;;;;;;5048378;28;20057;-78
2024/01/15 07:08:52;;;;;;;56.45;29.80;;;0.00;94.90;;;;;;5045312;28;20040;-78
2024/01/15 07:11:19;;;;;;;60.30;32.78;;;0.00;94.80;;;;;;5048012;28;20068;-80
2024/01/15 07:13:47;;;;;;;66.50;33.60;;;0.00;94.70;;;;;;5046434;28;20056;-80
2024/01/15 07:16:14;;;;;;;53.10;32.05;;;-0.20;94.70;;;;;;5050473;28;20041;-82
2024/01/15 07:19:01;;;;;;;55.47;32.08;;;-0.20;95.40;;;;;;5045923;28;20038;-78
2024/01/15 07:21:30;;;;;;;59.38;32.47;;;0.10;95.20;;;;;;5049597;28;20384;-79
2024/01/15 07:23:57;;;;;;;56.45;32.78;;;0.30;94.90;;;;;;5043099;28;20068;-79
2024/01/15 07:26:25;;;;;;;59.03;31.55;;;0.20;94.70;;;;;;5048305;28;20676;-78
2024/01/15 07:28:52;;;;;;;57.38;31.60;;;0.40;94.80;;;;;;5049155;28;20380;-79
2024/01/15 07:31:19;;;;;;;49.92;32.45;;;0.50;94.50;;;;;;5054799;28;20072;-79
2024/01/15 07:33:47;;;;;;;53.63;31.35;;;0.50;94.20;;;;;;5050972;28;20037;-81
2024/01/15 07:36:15;;;;;;;53.78;30.38;;;0.60;94.50;;;;;;5048393;28;20381;-81
2024/01/15 07:38:42;;;;;;;52.58;32.35;;;0.50;94.10;;;;;;5051653;28;20039;-78
2024/01/15 07:41:10;;;;;;;52.13;30.17;;;0.60;94.40;;;;;;5049203;28;20044;-76
2024/01/15 07:43:38;;;;;;;49.92;31.48;;;0.60;94.30;;;;;;5048111;28;20092;-79
2024/01/15 07:46:07;;;;;;;53.13;31.23;;;0.50;94.60;;;;;;5027902;28;20099;-76
2024/01/15 07:48:34;;;;;;;57.83;30.20;;;0.60;94.60;;;;;;5048254;28;20091;-77
2024/01/15 07:51:03;;;;;;;52.88;32.70;;;0.70;94.40;;;;;;5048429;28;20036;-80
2024/01/15 07:53:31;;;;;;;54.92;31.77;;;0.80;94.30;;;;;;5031163;28;20041;-78
2024/01/15 07:55:58;;;;;;;62.67;33.05;;;0.80;94.20;;;;;;5048538;28;20065;-79
2024/01/15 07:58:25;;;;;;;65.15;36.33;;;0.70;94.10;;;;;;5048868;28;20037;-76
2024/01/15 08:00:53;;;;;;;54.25;32.88;;;0.60;94.30;;;;;;5046851;28;20063;-75
2024/01/15 08:03:20;;;;;;;58.35;35.92;;;0.30;94.40;;;;;;5046720;28;20375;-75
2024/01/15 08:05:50;;;;;;;60.08;35.50;;;0.10;94.90;;;;;;5045633;28;20095;-75
2024/01/15 08:08:18;;;;;;;76.45;41.33;;;0.00;95.30;;;;;;5050049;28;20037;-75
2024/01/15 08:10:45;;;;;;;76.82;41.65;;;0.00;95.70;;;;;;5041559;28;20598;-77
2024/01/15 08:13:13;;;;;;;75.03;44.65;;;0.20;95.40;;;;;;5047923;28;20385;-77
2024/01/15 08:15:41;;;;;;;91.55;50.10;;;0.50;95.30;;;;;;5035752;28;20048;-77
2024/01/15 08:18:09;;;;;;;84.68;48.85;;;0.50;95.00;;;;;;5049126;28;20033;-76
2024/01/15 08:20:36;;;;;;;88.68;45.25;;;0.50;94.80;;;;;;5046147;28;20400;-76
2024/01/15 08:23:04;;;;;;;83.38;47.42;;;0.70;94.80;;;;;;5047790;28;20036;-78
2024/01/15 08:25:32;;;;;;;90.28;46.40;;;0.80;94.50;;;;;;5048896;28;20068;-77
2024/01/15 08:27:59;;;;;;;82.13;45.63;;;0.80;94.30;;;;;;5052363;28;20115;-77
2024/01/15 08:30:27;;;;;;;89.53;46.45;;;0.70;94.10;;;;;;5049195;28;20098;-77
2024/01/15 08:32:56;;;;;;;86.80;45.28;;;0.80;94.30;;;;;;5032417;28;20159;-77
2024/01/15 08:35:35;;;;;;;72.07;43.15;;;1.00;94.30;;;;;;5047596;28;20129;-77
2024/01/15 08:38:02;;;;;;;81.28;42.25;;;1.30;93.90;;;;;;5049033;28;20040;-77
2024/01/15 08:40:30;;;;;;;78.05;42.35;;;1.40;93.40;;;;;;5046283;28;20045;-76
2024/01/15 08:42:58;;;;;;;71.90;43.55;;;1.50;93.50;;;;;;5035357;28;20115;-76
2024/01/15 08:45:25;;;;;;;70.95;40.63;;;1.70;93.30;;;;;;5044930;28;20041;-79
2024/01/15 08:47:54;;;;;;;71.63;41.08;;;1.70;93.40;;;;;;5048862;28;20048;-76
2024/01/15 08:50:21;;;;;;;67.65;40.33;;;2.00;93.10;;;;;;5050319;28;20037;-76
2024/01/15 08:52:49;;;;;;;77.40;41.67;;;2.10;92.90;;;;;;5050863;28;20037;-79
2024/01/15 08:55:16;;;;;;;84.07;47.20;;;2.00;92.40;;;;;;5046591;28;20369;-76
2024/01/15 08:57:43;;;;;;;209.40;102.43;;;1.90;92.80;;;;;;5046378;28;20119;-76
2024/01/15 09:00:11;;;;;;;97.80;55.40;;;2.00;92.90;;;;;;5047283;28;20037;-77
2024/01/15 09:02:39;;;;;;;70.38;42.13;;;1.90;93.80;;;;;;5045916;28;20503;-76
2024/01/15 09:05:06;;;;;;;66.32;40.28;;;2.10;92.60;;;;;;5044971;28;20037;-80
2024/01/15 09:07:34;;;;;;;66.82;38.60;;;1.90;92.20;;;;;;5031832;28;20358;-77
2024/01/15 09:10:01;;;;;;;71.07;40.30;;;1.90;92.40;;;;;;5041667;28;20176;-76
2024/01/15 09:12:29;;;;;;;70.65;39.20;;;2.60;94.50;;;;;;5028855;28;20629;-79
2024/01/15 09:14:56;;;;;;;90.95;50.65;;;3.10;92.20;;;;;;5027630;28;20572;-77
2024/01/15 09:17:24;;;;;;;71.05;41.78;;;3.00;91.70;;;;;;5028919;28;20656;-77
2024/01/15 09:19:51;;;;;;;82.25;44.28;;;2.80;91.30;;;;;;5025194;28;20033;-78
2024/01/15 09:22:18;;;;;;;84.78;48.45;;;2.50;91.80;;;;;;5027045;28;20061;-78
2024/01/15 09:24:46;;;;;;;80.72;45.15;;;2.60;91.80;;;;;;5012478;28;20030;-77
2024/01/15 09:27:13;;;;;;;89.07;45.78;;;2.40;91.80;;;;;;5023401;28;20728;-78
2024/01/15 09:29:42;;;;;;;74.32;44.90;;;2.70;91.90;;;;;;5029768;28;20099;-78
2024/01/15 09:32:10;;;;;;;77.20;43.95;;;2.90;91.20;;;;;;5029898;28;20037;-79
2024/01/15 09:34:37;;;;;;;77.18;44.55;;;2.50;91.60;;;;;;5024639;28;20392;-79
2024/01/15 09:37:05;;;;;;;78.45;44.33;;;2.20;92.10;;;;;;5027730;28;20091;-78
2024/01/15 09:39:32;;;;;;;79.55;44.88;;;2.20;92.50;;;;;;5024579;28;20029;-81
2024/01/15 09:42:00;;;;;;;80.32;44.72;;;2.30;92.60;;;;;;5030801;28;20041;-80
2024/01/15 09:44:28;;;;;;;70.85;42.58;;;2.50;92.10;;;;;;5031574;28;20032;-78
2024/01/15 09:46:57;;;;;;;77.22;42.38;;;2.70;91.90;;;;;;5027581;28;20034;-78
2024/01/15 09:49:24;;;;;;;76.80;43.10;;;3.00;91.70;;;;;;5031816;28;20037;-82
2024/01/15 09:51:52;;;;;;;78.07;43.42;;;3.30;91.20;;;;;;5024928;28;20038;-76
2024/01/15 09:54:32;;;;;;;71.45;42.60;;;3.60;90.80;;;;;;5027617;28;20120;-79
2024/01/15 09:57:01;;;;;;;76.78;41.90;;;3.40;90.30;;;;;;5026522;28;20038;-78
2024/01/15 09:59:28;;;;;;;170.85;90.88;;;4.10;90.30;;;;;;5027021;28;20100;-78
2024/01/15 10:01:57;;;;;;;175.02;94.95;;;4.80;90.60;;;;;;5030631;28;20073;-75
2024/01/15 10:04:24;;;;;;;100.70;55.30;;;5.30;89.90;;;;;;5025090;28;20041;-78
2024/01/15 10:06:52;;;;;;;84.78;47.33;;;5.20;87.00;;;;;;5021829;28;20034;-78
2024/01/15 10:09:20;;;;;;;78.65;45.17;;;4.90;86.10;;;;;;5029614;28;20410;-77
2024/01/15 10:11:47;;;;;;;80.60;46.05;;;4.80;86.30;;;;;;5020386;28;20053;-77
2024/01/15 10:14:15;;;;;;;167.20;81.78;;;4.60;86.10;;;;;;5046534;28;20037;-75
2024/01/15 10:16:42;;;;;;;152.15;77.70;;;4.20;88.50;;;;;;5041524;28;20131;-75
2024/01/15 10:19:10;;;;;;;153.68;74.38;;;4.00;89.90;;;;;;5046835;28;20048;-75
2024/01/15 10:21:38;;;;;;;89.05;50.13;;;4.20;88.30;;;;;;5041896;28;20025;-76
2024/01/15 10:24:05;;;;;;;91.97;48.35;;;3.80;87.20;;;;;;5045292;28;20037;-76
2024/01/15 10:26:32;;;;;;;91.35;46.58;;;3.20;88.90;;;;;;5045960;28;20056;-76
2024/01/15 10:29:00;;;;;;;90.57;47.92;;;3.40;89.40;;;;;;5044249;28;20037;-76
2024/01/15 10:31:28;;;;;;;84.97;47.90;;;3.70;89.80;;;;;;5042982;28;20040;-76
2024/01/15 10:34:15;;;;;;;84.88;46.10;;;4.00;89.30;;;;;;5045953;28;20045;-76
2024/01/15 10:36:47;;;;;;;77.90;44.38;;;4.10;86.60;;;;;;5043167;28;20033;-76
2024/01/15 10:39:15;;;;;;;90.03;44.08;;;3.90;86.60;;;;;;5046752;28;20481;-75
2024/01/15 10:41:44;;;;;;;71.72;42.17;;;3.80;86.70;;;;;;5046048;28;20430;-75
2024/01/15 10:44:11;;;;;;;78.07;42.55;;;3.70;87.00;;;;;;5019854;28;20062;-78
2024/01/15 10:46:39;;;;;;;82.40;43.88;;;4.10;86.20;;;;;;5045607;28;20099;-77
2024/01/15 10:49:07;;;;;;;85.18;42.95;;;3.90;85.10;;;;;;5043121;28;20033;-77
2024/01/15 10:51:34;;;;;;;78.20;41.60;;;3.60;87.20;;;;;;5047331;28;20029;-79
2024/01/15 10:54:02;;;;;;;81.80;43.15;;;3.90;86.80;;;;;;5041137;28;20258;-77
2024/01/15 10:56:33;;;;;;;79.88;44.08;;;4.20;86.10;;;;;;5047225;28;20047;-76
2024/01/15 10:59:01;;;;;;;86.45;45.55;;;4.30;86.70;;;;;;5045740;28;20488;-77
2024/01/15 11:01:30;;;;;;;78.88;44.30;;;4.50;85.90;;;;;;5046453;28;20472;-75
2024/01/15 11:03:58;;;;;;;80.20;43.88;;;4.60;85.60;;;;;;5049632;28;20412;-75
2024/01/15 11:06:28;;;;;;;74.72;43.70;;;4.60;85.40;;;;;;5022249;28;20241;-77
2024/01/15 11:08:56;;;;;;;69.68;42.83;;;4.70;85.20;;;;;;5022927;28;20045;-75
2024/01/15 11:11:25;;;;;;;79.75;43.45;;;4.90;84.20;;;;;;5044042;28;20476;-78
2024/01/15 11:13:52;;;;;;;72.90;39.85;;;5.00;83.50;;;;;;5038169;28;20041;-78
2024/01/15 11:16:20;;;;;;;79.60;42.63;;;4.90;83.40;;;;;;5033686;28;20064;-76
2024/01/15 11:18:59;;;;;;;73.03;40.75;;;4.90;83.40;;;;;;5028200;28;20045;-75
2024/01/15 11:21:29;;;;;;;70.78;39.03;;;5.00;83.00;;;;;;5044365;28;20102;-76
2024/01/15 11:24:02;;;;;;;71.55;37.05;;;5.00;82.90;;;;;;5027169;28;20467;-75
2024/01/15 11:26:34;;;;;;;62.70;36.72;;;4.90;82.10;;;;;;5047057;28;20063;-77
2024/01/15 11:29:05;;;;;;;59.45;35.78;;;4.60;82.10;;;;;;5044460;28;20484;-75
2024/01/15 11:31:38;;;;;;;59.20;34.63;;;4.60;82.90;;;;;;5044874;28;20477;-73
2024/01/15 11:34:10;;;;;;;63.95;34.78;;;4.60;82.00;;;;;;5046342;28;20507;-74
2024/01/15 11:36:53;;;;;;;65.07;35.03;;;4.30;82.40;;;;;;5047183;28;20040;-78
2024/01/15 11:39:32;;;;;;;55.90;33.92;;;4.50;86.10;;;;;;5047109;28;20519;-77
2024/01/15 11:42:04;;;;;;;61.25;32.58;;;4.90;83.50;;;;;;5043661;28;20041;-83
2024/01/15 11:44:31;;;;;;;58.05;35.63;;;4.80;83.60;;;;;;5047800;28;20528;-83
2024/01/15 11:47:13;;;;;;;221.93;104.72;;;4.90;84.90;;;;;;5043913;28;20029;-83
2024/01/15 11:50:05;;;;;;;84.55;47.42;;;5.80;86.80;;;;;;5043636;28;20060;-79
2024/01/15 11:52:34;;;;;;;65.45;36.80;;;5.80;81.80;;;;;;5044633;28;20102;-79
2024/01/15 11:55:13;;;;;;;56.28;33.63;;;5.60;81.30;;;;;;5028797;28;20033;-79
2024/01/15 11:57:47;;;;;;;57.40;32.95;;;5.10;81.10;;;;;;5040632;28;20467;-80
2024/01/15 12:00:15;;;;;;;63.42;36.47;;;5.20;81.70;;;;;;5049572;28;20056;-80
2024/01/15 12:02:47;;;;;;;61.65;34.80;;;5.30;81.00;;;;;;5043338;28;21257;-81
2024/01/15 12:05:16;;;;;;;59.03;32.40;;;5.00;80.80;;;;;;5046208;28;20354;-80
2024/01/15 12:07:49;;;;;;;43.83;28.02;;;5.10;80.60;;;;;;5046110;28;20037;-85
2024/01/15 12:10:21;;;;;;;45.38;27.90;;;5.10;80.00;;;;;;5050391;28;20128;-83
2024/01/15 12:13:04;;;;;;;43.25;24.90;;;5.20;80.30;;;;;;5047780;28;20039;-82
2024/01/15 12:15:32;;;;;;;37.05;23.38;;;5.20;79.50;;;;;;5034389;28;20040;-81
2024/01/15 12:18:02;;;;;;;34.90;19.90;;;5.30;78.80;;;;;;5025763;28;20083;-82
2024/01/15 12:20:31;;;;;;;43.38;24.08;;;5.10;78.00;;;;;;5047194;28;20045;-81
2024/01/15 12:22:58;;;;;;;42.78;24.58;;;4.60;79.00;;;;;;5044368;28;20065;-82
2024/01/15 12:25:34;;;;;;;40.20;24.58;;;4.50;79.70;;;;;;5028340;28;20077;-88
2024/01/15 12:28:02;;;;;;;50.88;27.80;;;4.50;79.70;;;;;;5023190;28;20045;-83
2024/01/15 12:30:33;;;;;;;54.33;30.98;;;4.80;80.10;;;;;;5030420;28;20112;-84
2024/01/15 12:33:05;;;;;;;46.75;29.23;;;5.00;79.40;;;;;;5052575;28;20041;-84
2024/01/15 12:35:36;;;;;;;55.30;30.75;;;5.00;78.90;;;;;;5047656;28;20036;-84
2024/01/15 12:38:04;;;;;;;49.75;28.33;;;4.70;79.50;;;;;;5050208;28;20104;-88